Share

تلعفر, العراق

02:05 PM AST on ابریل 24, 2014 (GMT +0300)
Mosul (ORBM) Elev 732 ft | 36.31 °N, 43.15 °E | Change Station

Current weather conditions updated 1 hour ago

Clear
صافية
86 °F
Feels Like 86 °F
N
7
ريح متغير ريح from WNW
شروق الشمس 5:25 AM
غروب الشمس 6:51 PM
قمر الهلال الأخير

Today is forecast to be nearly the same temperature as yesterday.

الضغط 29.89 في
وضوح الرؤية -9999.0 أميال
سحابات
نقطة الندى 46 °F
الرطوبة 25%
Rainfall 0.00 في
عمق الثلج Not available.
الأشعة فوق البنفسجية Not available.
Pollen Not available.
جودة الهواء Not available.
Flu Activity Not available.
METAR ORBM 241000Z 30006KT CAVOK 30/08 Q1012 NOSIG

More Conditions Fewer Conditions

الضغط 29.89 في
وضوح الرؤية -9999.0 أميال
سحابات
نقطة الندى 46 °F
الرطوبة 25%
Rainfall 0.00 في
عمق الثلج Not available.
الأشعة فوق البنفسجية Not available.
Pollen Not available.
جودة الهواء Not available.
Flu Activity Not available.
METAR ORBM 241000Z 30006KT CAVOK 30/08 Q1012 NOSIG

More Conditions Fewer Conditions

10-Day Weather Forecast

Almanac

علم الفلك

Apr. 24, 2014 Rise Set
Actual Time 5:25 AM AST 6:51 PM AST
Civil Twilight 4:58 AM AST 7:18 PM AST
Nautical Twilight 4:26 AM AST 7:51 PM AST
Astronomical Twilight 3:52 AM AST 8:25 PM AST
قمر 2:13 AM AST 1:51 PM AST
Length Of Visible Light 14h 20m
طول الیوم
13h 25m
Tomorrow will be 2m 5s longer.
الهلال الأخير, 26% of the Moon is Illuminated
هذا اليوم
الهلال الأخير
Apr 29
New
May 6
الربع الاول
May 14
بدر
May 21
الربع الآخر

Yesterday's Extremes

Country Highs Country Lows

Community

  • Stacked
    Stacked
  • clouds approaching Red Sox Nation
    clouds approaching Red Sox Nation
  • Balance
    Balance
  • Nestled In
    Nestled In
  • Stunning Sunrise
    Stunning Sunrise

WunderPhotos

Upload Photos

1,704,584 photos uploaded!

WunderBlogs® & News

Nearby

جودة الهواء

Not available.

عمق الثلج

Not available.

Coastal Water Temperatures

مكان درجات الحرارة
No Stations Reporting

Earthquake Activity

City Distance Mag. Time & Date
No recent earthquake activity has been reported nearby.
Minimum magnitude displayed is 2.5.

Nearby Weather Stations

There are no personal weather stations in this area.

What do you think?

We're not finished. Please let us know what you like, what you don't like, and what you are still missing.